sensor_id;sensor_type;location;lat;lon;timestamp;P1;durP1;ratioP1;P2;durP2;ratioP2
20318;SDS011;10317;47.254;11.314;2022-10-28T00:02:16;4.20;;;3.90;;
20318;SDS011;10317;47.254;11.314;2022-10-28T00:04:42;4.82;;;4.07;;
20318;SDS011;10317;47.254;11.314;2022-10-28T00:07:08;6.50;;;4.80;;
20318;SDS011;10317;47.254;11.314;2022-10-28T00:09:34;7.00;;;4.97;;
20318;SDS011;10317;47.254;11.314;2022-10-28T00:11:59;8.15;;;4.28;;
20318;SDS011;10317;47.254;11.314;2022-10-28T00:14:25;5.53;;;4.75;;
20318;SDS011;10317;47.254;11.314;2022-10-28T00:16:51;6.10;;;4.57;;
20318;SDS011;10317;47.254;11.314;2022-10-28T00:19:17;9.95;;;4.45;;
20318;SDS011;10317;47.254;11.314;2022-10-28T00:21:43;4.95;;;4.28;;
20318;SDS011;10317;47.254;11.314;2022-10-28T00:24:09;6.50;;;4.97;;
20318;SDS011;10317;47.254;11.314;2022-10-28T00:26:36;9.50;;;4.35;;
20318;SDS011;10317;47.254;11.314;2022-10-28T00:29:06;5.15;;;4.65;;
20318;SDS011;10317;47.254;11.314;2022-10-28T00:31:34;4.72;;;4.22;;
20318;SDS011;10317;47.254;11.314;2022-10-28T00:34:01;6.68;;;4.45;;
20318;SDS011;10317;47.254;11.314;2022-10-28T00:36:30;6.95;;;4.80;;
20318;SDS011;10317;47.254;11.314;2022-10-28T00:38:58;6.25;;;5.18;;
20318;SDS011;10317;47.254;11.314;2022-10-28T00:43:55;6.40;;;4.50;;
20318;SDS011;10317;47.254;11.314;2022-10-28T00:46:44;7.95;;;4.60;;
20318;SDS011;10317;47.254;11.314;2022-10-28T00:51:40;10.07;;;5.07;;
20318;SDS011;10317;47.254;11.314;2022-10-28T00:54:08;6.20;;;4.93;;
20318;SDS011;10317;47.254;11.314;2022-10-28T00:56:37;7.72;;;5.05;;
20318;SDS011;10317;47.254;11.314;2022-10-28T00:59:07;6.35;;;5.15;;
20318;SDS011;10317;47.254;11.314;2022-10-28T01:01:48;4.75;;;4.35;;
20318;SDS011;10317;47.254;11.314;2022-10-28T01:04:14;5.00;;;4.50;;
20318;SDS011;10317;47.254;11.314;2022-10-28T01:06:41;9.65;;;4.65;;
20318;SDS011;10317;47.254;11.314;2022-10-28T01:09:07;10.82;;;4.60;;
20318;SDS011;10317;47.254;11.314;2022-10-28T01:11:44;6.82;;;4.85;;
20318;SDS011;10317;47.254;11.314;2022-10-28T01:17:21;7.38;;;4.88;;
20318;SDS011;10317;47.254;11.314;2022-10-28T01:34:51;7.93;;;5.05;;
20318;SDS011;10317;47.254;11.314;2022-10-28T01:37:26;7.55;;;4.32;;
20318;SDS011;10317;47.254;11.314;2022-10-28T01:40:08;5.80;;;4.70;;
20318;SDS011;10317;47.254;11.314;2022-10-28T01:42:43;5.82;;;4.07;;
20318;SDS011;10317;47.254;11.314;2022-10-28T01:45:34;4.63;;;4.22;;
20318;SDS011;10317;47.254;11.314;2022-10-28T01:48:31;5.95;;;4.45;;
20318;SDS011;10317;47.254;11.314;2022-10-28T01:51:12;6.18;;;5.18;;
20318;SDS011;10317;47.254;11.314;2022-10-28T01:53:44;5.60;;;3.97;;
20318;SDS011;10317;47.254;11.314;2022-10-28T01:56:14;7.47;;;4.63;;
20318;SDS011;10317;47.254;11.314;2022-10-28T01:58:45;6.95;;;4.90;;
20318;SDS011;10317;47.254;11.314;2022-10-28T02:01:12;5.10;;;4.60;;
20318;SDS011;10317;47.254;11.314;2022-10-28T02:03:38;10.15;;;4.70;;
20318;SDS011;10317;47.254;11.314;2022-10-28T02:06:06;8.27;;;4.30;;
20318;SDS011;10317;47.254;11.314;2022-10-28T02:17:18;4.30;;;3.90;;
20318;SDS011;10317;47.254;11.314;2022-10-28T02:27:39;8.23;;;5.07;;
20318;SDS011;10317;47.254;11.314;2022-10-28T02:32:57;5.38;;;4.50;;
20318;SDS011;10317;47.254;11.314;2022-10-28T02:35:30;7.20;;;3.80;;
20318;SDS011;10317;47.254;11.314;2022-10-28T02:38:06;5.82;;;4.90;;
20318;SDS011;10317;47.254;11.314;2022-10-28T02:40:35;4.47;;;4.07;;
20318;SDS011;10317;47.254;11.314;2022-10-28T02:43:06;6.35;;;4.28;;
20318;SDS011;10317;47.254;11.314;2022-10-28T02:45:36;7.50;;;3.75;;
20318;SDS011;10317;47.254;11.314;2022-10-28T02:48:51;4.28;;;3.88;;
20318;SDS011;10317;47.254;11.314;2022-10-28T02:51:10;5.45;;;4.00;;
20318;SDS011;10317;47.254;11.314;2022-10-28T02:57:06;4.78;;;4.32;;
20318;SDS011;10317;47.254;11.314;2022-10-28T03:00:00;5.75;;;3.95;;
20318;SDS011;10317;47.254;11.314;2022-10-28T03:02:29;5.53;;;4.50;;
20318;SDS011;10317;47.254;11.314;2022-10-28T03:04:56;6.25;;;3.72;;
20318;SDS011;10317;47.254;11.314;2022-10-28T03:07:21;6.90;;;4.43;;
20318;SDS011;10317;47.254;11.314;2022-10-28T03:09:47;4.35;;;3.75;;
20318;SDS011;10317;47.254;11.314;2022-10-28T03:12:12;9.20;;;5.40;;
20318;SDS011;10317;47.254;11.314;2022-10-28T03:14:39;8.13;;;4.50;;
20318;SDS011;10317;47.254;11.314;2022-10-28T03:17:06;5.50;;;4.00;;
20318;SDS011;10317;47.254;11.314;2022-10-28T03:19:32;7.45;;;4.38;;
20318;SDS011;10317;47.254;11.314;2022-10-28T03:21:57;5.28;;;3.85;;
20318;SDS011;10317;47.254;11.314;2022-10-28T03:24:23;5.43;;;4.60;;
20318;SDS011;10317;47.254;11.314;2022-10-28T03:26:49;4.80;;;4.30;;
20318;SDS011;10317;47.254;11.314;2022-10-28T03:29:14;4.93;;;4.38;;
20318;SDS011;10317;47.254;11.314;2022-10-28T03:31:40;5.22;;;4.22;;
20318;SDS011;10317;47.254;11.314;2022-10-28T03:34:06;5.30;;;4.78;;
20318;SDS011;10317;47.254;11.314;2022-10-28T03:36:32;5.07;;;3.95;;
20318;SDS011;10317;47.254;11.314;2022-10-28T03:38:57;4.22;;;3.83;;
20318;SDS011;10317;47.254;11.314;2022-10-28T03:41:23;8.02;;;4.15;;
20318;SDS011;10317;47.254;11.314;2022-10-28T03:43:49;4.53;;;4.10;;
20318;SDS011;10317;47.254;11.314;2022-10-28T03:46:15;9.18;;;4.55;;
20318;SDS011;10317;47.254;11.314;2022-10-28T03:48:40;4.95;;;4.45;;
20318;SDS011;10317;47.254;11.314;2022-10-28T03:51:06;5.22;;;4.15;;
20318;SDS011;10317;47.254;11.314;2022-10-28T03:53:32;4.18;;;3.78;;
20318;SDS011;10317;47.254;11.314;2022-10-28T03:55:58;4.30;;;3.88;;
20318;SDS011;10317;47.254;11.314;2022-10-28T03:58:25;4.50;;;3.08;;
20318;SDS011;10317;47.254;11.314;2022-10-28T04:00:51;5.13;;;3.95;;
20318;SDS011;10317;47.254;11.314;2022-10-28T04:03:18;4.57;;;3.78;;
20318;SDS011;10317;47.254;11.314;2022-10-28T04:05:45;6.63;;;4.35;;
20318;SDS011;10317;47.254;11.314;2022-10-28T04:08:14;10.32;;;3.33;;
20318;SDS011;10317;47.254;11.314;2022-10-28T04:10:41;4.38;;;3.65;;
20318;SDS011;10317;47.254;11.314;2022-10-28T04:13:07;6.32;;;4.10;;
20318;SDS011;10317;47.254;11.314;2022-10-28T04:15:33;4.60;;;3.88;;
20318;SDS011;10317;47.254;11.314;2022-10-28T04:17:59;3.92;;;3.45;;
20318;SDS011;10317;47.254;11.314;2022-10-28T04:20:27;5.43;;;3.22;;
20318;SDS011;10317;47.254;11.314;2022-10-28T04:22:53;6.40;;;4.25;;
20318;SDS011;10317;47.254;11.314;2022-10-28T04:25:20;5.10;;;3.70;;
20318;SDS011;10317;47.254;11.314;2022-10-28T04:27:46;7.10;;;6.05;;
20318;SDS011;10317;47.254;11.314;2022-10-28T04:30:14;17.08;;;14.98;;
20318;SDS011;10317;47.254;11.314;2022-10-28T04:32:40;7.82;;;5.47;;
20318;SDS011;10317;47.254;11.314;2022-10-28T04:35:07;5.13;;;4.10;;
20318;SDS011;10317;47.254;11.314;2022-10-28T04:37:34;5.72;;;3.80;;
20318;SDS011;10317;47.254;11.314;2022-10-28T04:40:00;4.10;;;3.70;;
20318;SDS011;10317;47.254;11.314;2022-10-28T04:42:26;6.55;;;4.63;;
20318;SDS011;10317;47.254;11.314;2022-10-28T04:44:52;5.88;;;3.72;;
20318;SDS011;10317;47.254;11.314;2022-10-28T04:47:17;5.72;;;3.88;;
20318;SDS011;10317;47.254;11.314;2022-10-28T04:49:43;6.38;;;3.75;;
20318;SDS011;10317;47.254;11.314;2022-10-28T04:52:09;6.55;;;4.32;;
20318;SDS011;10317;47.254;11.314;2022-10-28T04:54:35;6.40;;;3.53;;
20318;SDS011;10317;47.254;11.314;2022-10-28T04:57:01;3.53;;;3.22;;
20318;SDS011;10317;47.254;11.314;2022-10-28T04:59:27;4.07;;;3.70;;
20318;SDS011;10317;47.254;11.314;2022-10-28T05:01:53;3.67;;;3.35;;
20318;SDS011;10317;47.254;11.314;2022-10-28T05:04:19;4.10;;;3.33;;
20318;SDS011;10317;47.254;11.314;2022-10-28T05:06:44;4.15;;;3.75;;
20318;SDS011;10317;47.254;11.314;2022-10-28T05:09:10;6.07;;;3.97;;
20318;SDS011;10317;47.254;11.314;2022-10-28T05:11:36;4.75;;;3.55;;
20318;SDS011;10317;47.254;11.314;2022-10-28T05:14:02;5.32;;;4.88;;
20318;SDS011;10317;47.254;11.314;2022-10-28T05:16:27;9.02;;;4.40;;
20318;SDS011;10317;47.254;11.314;2022-10-28T05:18:53;4.90;;;4.38;;
20318;SDS011;10317;47.254;11.314;2022-10-28T05:21:19;5.82;;;3.92;;
20318;SDS011;10317;47.254;11.314;2022-10-28T05:23:45;3.88;;;3.47;;
20318;SDS011;10317;47.254;11.314;2022-10-28T05:26:13;4.93;;;3.65;;
20318;SDS011;10317;47.254;11.314;2022-10-28T05:28:39;4.53;;;4.00;;
20318;SDS011;10317;47.254;11.314;2022-10-28T05:31:05;4.38;;;3.97;;
20318;SDS011;10317;47.254;11.314;2022-10-28T05:33:30;6.28;;;4.53;;
20318;SDS011;10317;47.254;11.314;2022-10-28T05:35:58;4.28;;;3.88;;
20318;SDS011;10317;47.254;11.314;2022-10-28T05:38:24;5.03;;;4.00;;
20318;SDS011;10317;47.254;11.314;2022-10-28T05:40:50;11.57;;;3.92;;
20318;SDS011;10317;47.254;11.314;2022-10-28T05:43:16;4.78;;;3.92;;
20318;SDS011;10317;47.254;11.314;2022-10-28T05:45:41;7.30;;;3.97;;
20318;SDS011;10317;47.254;11.314;2022-10-28T05:48:07;12.07;;;4.43;;
20318;SDS011;10317;47.254;11.314;2022-10-28T05:50:33;5.30;;;3.67;;
20318;SDS011;10317;47.254;11.314;2022-10-28T05:52:59;6.80;;;4.00;;
20318;SDS011;10317;47.254;11.314;2022-10-28T05:55:25;4.18;;;3.80;;
20318;SDS011;10317;47.254;11.314;2022-10-28T05:57:52;5.60;;;4.45;;
20318;SDS011;10317;47.254;11.314;2022-10-28T06:00:20;3.92;;;3.63;;
20318;SDS011;10317;47.254;11.314;2022-10-28T06:02:48;6.65;;;4.22;;
20318;SDS011;10317;47.254;11.314;2022-10-28T06:05:14;6.43;;;4.28;;
20318;SDS011;10317;47.254;11.314;2022-10-28T06:07:41;5.38;;;4.28;;
20318;SDS011;10317;47.254;11.314;2022-10-28T06:10:07;4.40;;;3.78;;
20318;SDS011;10317;47.254;11.314;2022-10-28T06:12:34;9.32;;;4.68;;
20318;SDS011;10317;47.254;11.314;2022-10-28T06:15:00;7.30;;;4.63;;
20318;SDS011;10317;47.254;11.314;2022-10-28T06:17:26;7.95;;;4.70;;
20318;SDS011;10317;47.254;11.314;2022-10-28T06:19:51;6.82;;;4.30;;
20318;SDS011;10317;47.254;11.314;2022-10-28T06:22:17;4.93;;;4.00;;
20318;SDS011;10317;47.254;11.314;2022-10-28T06:24:43;4.80;;;4.40;;
20318;SDS011;10317;47.254;11.314;2022-10-28T06:27:09;6.43;;;4.07;;
20318;SDS011;10317;47.254;11.314;2022-10-28T06:29:35;5.38;;;4.13;;
20318;SDS011;10317;47.254;11.314;2022-10-28T06:32:00;6.55;;;4.10;;
20318;SDS011;10317;47.254;11.314;2022-10-28T06:34:26;5.00;;;4.05;;
20318;SDS011;10317;47.254;11.314;2022-10-28T06:36:52;5.88;;;3.95;;
20318;SDS011;10317;47.254;11.314;2022-10-28T06:39:18;6.07;;;4.15;;
20318;SDS011;10317;47.254;11.314;2022-10-28T06:41:44;4.85;;;3.78;;
20318;SDS011;10317;47.254;11.314;2022-10-28T06:44:10;8.15;;;3.95;;
20318;SDS011;10317;47.254;11.314;2022-10-28T06:46:35;6.90;;;3.75;;
20318;SDS011;10317;47.254;11.314;2022-10-28T06:49:04;6.90;;;4.97;;
20318;SDS011;10317;47.254;11.314;2022-10-28T06:51:30;7.20;;;6.45;;
20318;SDS011;10317;47.254;11.314;2022-10-28T06:53:56;4.32;;;3.92;;
20318;SDS011;10317;47.254;11.314;2022-10-28T06:56:22;6.28;;;3.97;;
20318;SDS011;10317;47.254;11.314;2022-10-28T06:58:49;7.13;;;4.30;;
20318;SDS011;10317;47.254;11.314;2022-10-28T07:01:15;9.20;;;4.07;;
20318;SDS011;10317;47.254;11.314;2022-10-28T07:03:41;4.82;;;3.70;;
20318;SDS011;10317;47.254;11.314;2022-10-28T07:06:07;8.30;;;4.90;;
20318;SDS011;10317;47.254;11.314;2022-10-28T07:08:33;7.38;;;4.75;;
20318;SDS011;10317;47.254;11.314;2022-10-28T07:10:59;9.13;;;4.47;;
20318;SDS011;10317;47.254;11.314;2022-10-28T07:13:28;5.53;;;4.22;;
20318;SDS011;10317;47.254;11.314;2022-10-28T07:15:54;7.10;;;4.50;;
20318;SDS011;10317;47.254;11.314;2022-10-28T07:18:22;6.30;;;4.32;;
20318;SDS011;10317;47.254;11.314;2022-10-28T07:20:49;4.22;;;3.83;;
20318;SDS011;10317;47.254;11.314;2022-10-28T07:23:16;4.80;;;3.72;;
20318;SDS011;10317;47.254;11.314;2022-10-28T07:25:50;6.43;;;4.43;;
20318;SDS011;10317;47.254;11.314;2022-10-28T07:28:17;4.85;;;4.30;;
20318;SDS011;10317;47.254;11.314;2022-10-28T07:30:42;8.52;;;4.32;;
20318;SDS011;10317;47.254;11.314;2022-10-28T07:33:08;4.78;;;4.38;;
20318;SDS011;10317;47.254;11.314;2022-10-28T07:35:34;6.85;;;5.05;;
20318;SDS011;10317;47.254;11.314;2022-10-28T07:38:00;9.70;;;4.20;;
20318;SDS011;10317;47.254;11.314;2022-10-28T07:40:26;5.53;;;4.13;;
20318;SDS011;10317;47.254;11.314;2022-10-28T07:42:51;6.75;;;4.47;;
20318;SDS011;10317;47.254;11.314;2022-10-28T07:45:17;8.18;;;4.05;;
20318;SDS011;10317;47.254;11.314;2022-10-28T07:47:43;4.55;;;3.67;;
20318;SDS011;10317;47.254;11.314;2022-10-28T07:50:09;5.95;;;3.70;;
20318;SDS011;10317;47.254;11.314;2022-10-28T07:52:36;5.35;;;4.00;;
20318;SDS011;10317;47.254;11.314;2022-10-28T07:55:03;5.88;;;3.40;;
20318;SDS011;10317;47.254;11.314;2022-10-28T07:57:29;5.22;;;3.40;;
20318;SDS011;10317;47.254;11.314;2022-10-28T07:59:55;6.88;;;4.35;;
20318;SDS011;10317;47.254;11.314;2022-10-28T08:02:22;4.75;;;3.83;;
20318;SDS011;10317;47.254;11.314;2022-10-28T08:04:49;5.10;;;3.22;;
20318;SDS011;10317;47.254;11.314;2022-10-28T08:07:15;8.25;;;4.10;;
20318;SDS011;10317;47.254;11.314;2022-10-28T08:09:41;4.28;;;3.88;;
20318;SDS011;10317;47.254;11.314;2022-10-28T08:12:07;6.93;;;3.67;;
20318;SDS011;10317;47.254;11.314;2022-10-28T08:14:36;5.70;;;3.47;;
20318;SDS011;10317;47.254;11.314;2022-10-28T08:17:02;4.75;;;3.85;;
20318;SDS011;10317;47.254;11.314;2022-10-28T08:19:27;4.50;;;3.28;;
20318;SDS011;10317;47.254;11.314;2022-10-28T08:21:53;10.85;;;3.53;;
20318;SDS011;10317;47.254;11.314;2022-10-28T08:24:19;5.60;;;3.83;;
20318;SDS011;10317;47.254;11.314;2022-10-28T08:26:45;3.80;;;3.45;;
20318;SDS011;10317;47.254;11.314;2022-10-28T08:29:10;3.97;;;3.58;;
20318;SDS011;10317;47.254;11.314;2022-10-28T08:31:39;6.95;;;3.05;;
20318;SDS011;10317;47.254;11.314;2022-10-28T08:34:05;6.50;;;3.60;;
20318;SDS011;10317;47.254;11.314;2022-10-28T08:36:31;4.60;;;3.22;;
20318;SDS011;10317;47.254;11.314;2022-10-28T08:38:57;6.88;;;3.78;;
20318;SDS011;10317;47.254;11.314;2022-10-28T08:41:34;3.53;;;2.97;;
20318;SDS011;10317;47.254;11.314;2022-10-28T08:49:38;9.38;;;3.58;;
20318;SDS011;10317;47.254;11.314;2022-10-28T08:54:57;12.88;;;3.13;;
20318;SDS011;10317;47.254;11.314;2022-10-28T08:57:32;5.18;;;2.97;;
20318;SDS011;10317;47.254;11.314;2022-10-28T09:00:05;3.58;;;2.30;;
20318;SDS011;10317;47.254;11.314;2022-10-28T09:02:43;5.75;;;2.40;;
20318;SDS011;10317;47.254;11.314;2022-10-28T09:07:47;3.60;;;2.05;;
20318;SDS011;10317;47.254;11.314;2022-10-28T09:10:14;4.20;;;1.95;;
20318;SDS011;10317;47.254;11.314;2022-10-28T09:12:57;5.75;;;1.98;;
20318;SDS011;10317;47.254;11.314;2022-10-28T09:16:09;2.13;;;1.70;;
20318;SDS011;10317;47.254;11.314;2022-10-28T09:21:02;4.15;;;2.67;;
20318;SDS011;10317;47.254;11.314;2022-10-28T09:23:38;7.32;;;2.13;;
20318;SDS011;10317;47.254;11.314;2022-10-28T09:31:47;3.22;;;1.70;;
20318;SDS011;10317;47.254;11.314;2022-10-28T09:37:16;1.75;;;1.45;;
20318;SDS011;10317;47.254;11.314;2022-10-28T09:39:46;2.05;;;1.77;;
20318;SDS011;10317;47.254;11.314;2022-10-28T09:42:58;2.22;;;2.00;;
20318;SDS011;10317;47.254;11.314;2022-10-28T09:45:39;5.15;;;2.78;;
20318;SDS011;10317;47.254;11.314;2022-10-28T09:48:13;4.70;;;1.85;;
20318;SDS011;10317;47.254;11.314;2022-10-28T09:50:44;1.52;;;1.42;;
20318;SDS011;10317;47.254;11.314;2022-10-28T09:53:31;2.40;;;1.92;;
20318;SDS011;10317;47.254;11.314;2022-10-28T09:56:03;2.70;;;1.75;;
20318;SDS011;10317;47.254;11.314;2022-10-28T09:58:32;4.63;;;1.92;;
20318;SDS011;10317;47.254;11.314;2022-10-28T10:00:58;2.42;;;1.52;;
20318;SDS011;10317;47.254;11.314;2022-10-28T10:03:25;1.38;;;1.38;;
20318;SDS011;10317;47.254;11.314;2022-10-28T10:05:51;3.30;;;1.75;;
20318;SDS011;10317;47.254;11.314;2022-10-28T10:08:22;4.20;;;1.63;;
20318;SDS011;10317;47.254;11.314;2022-10-28T10:13:32;2.65;;;1.70;;
20318;SDS011;10317;47.254;11.314;2022-10-28T10:19:10;1.52;;;1.40;;
20318;SDS011;10317;47.254;11.314;2022-10-28T10:21:51;2.95;;;1.35;;
20318;SDS011;10317;47.254;11.314;2022-10-28T10:24:29;6.45;;;2.05;;
20318;SDS011;10317;47.254;11.314;2022-10-28T10:27:11;2.53;;;1.65;;
20318;SDS011;10317;47.254;11.314;2022-10-28T10:29:49;1.73;;;1.60;;
20318;SDS011;10317;47.254;11.314;2022-10-28T10:32:17;2.17;;;1.50;;
20318;SDS011;10317;47.254;11.314;2022-10-28T10:35:33;1.60;;;1.50;;
20318;SDS011;10317;47.254;11.314;2022-10-28T10:37:49;3.90;;;2.80;;
20318;SDS011;10317;47.254;11.314;2022-10-28T10:40:36;2.85;;;2.03;;
20318;SDS011;10317;47.254;11.314;2022-10-28T10:43:22;1.80;;;1.50;;
20318;SDS011;10317;47.254;11.314;2022-10-28T10:48:35;2.15;;;1.40;;
20318;SDS011;10317;47.254;11.314;2022-10-28T10:51:06;1.40;;;1.30;;
20318;SDS011;10317;47.254;11.314;2022-10-28T10:53:48;1.50;;;1.40;;
20318;SDS011;10317;47.254;11.314;2022-10-28T10:56:27;1.83;;;1.70;;
20318;SDS011;10317;47.254;11.314;2022-10-28T10:58:59;2.75;;;1.80;;
20318;SDS011;10317;47.254;11.314;2022-10-28T11:01:35;9.10;;;1.38;;
20318;SDS011;10317;47.254;11.314;2022-10-28T11:04:04;1.45;;;1.45;;
20318;SDS011;10317;47.254;11.314;2022-10-28T11:06:43;1.83;;;1.33;;
20318;SDS011;10317;47.254;11.314;2022-10-28T11:09:18;1.30;;;1.20;;
20318;SDS011;10317;47.254;11.314;2022-10-28T11:11:51;1.70;;;1.38;;
20318;SDS011;10317;47.254;11.314;2022-10-28T11:16:52;2.63;;;1.75;;
20318;SDS011;10317;47.254;11.314;2022-10-28T11:19:20;21.65;;;15.38;;
20318;SDS011;10317;47.254;11.314;2022-10-28T11:27:13;1.02;;;1.02;;
20318;SDS011;10317;47.254;11.314;2022-10-28T11:30:00;2.83;;;1.00;;
20318;SDS011;10317;47.254;11.314;2022-10-28T11:32:51;2.15;;;1.30;;
20318;SDS011;10317;47.254;11.314;2022-10-28T11:35:35;2.88;;;1.10;;
20318;SDS011;10317;47.254;11.314;2022-10-28T12:09:51;4.47;;;1.92;;
20318;SDS011;10317;47.254;11.314;2022-10-28T12:20:55;1.58;;;1.25;;
20318;SDS011;10317;47.254;11.314;2022-10-28T12:23:26;1.20;;;1.10;;
20318;SDS011;10317;47.254;11.314;2022-10-28T12:25:54;2.45;;;1.38;;
20318;SDS011;10317;47.254;11.314;2022-10-28T12:28:23;3.05;;;1.33;;
20318;SDS011;10317;47.254;11.314;2022-10-28T12:30:56;2.45;;;1.20;;
20318;SDS011;10317;47.254;11.314;2022-10-28T12:33:33;2.25;;;1.00;;
20318;SDS011;10317;47.254;11.314;2022-10-28T12:36:23;3.97;;;1.38;;
20318;SDS011;10317;47.254;11.314;2022-10-28T12:39:32;1.95;;;1.48;;
20318;SDS011;10317;47.254;11.314;2022-10-28T12:42:02;22.67;;;2.47;;
20318;SDS011;10317;47.254;11.314;2022-10-28T12:44:42;5.32;;;1.50;;
20318;SDS011;10317;47.254;11.314;2022-10-28T12:47:18;1.30;;;1.27;;
20318;SDS011;10317;47.254;11.314;2022-10-28T12:57:49;1.40;;;1.35;;
20318;SDS011;10317;47.254;11.314;2022-10-28T13:00:27;3.92;;;1.40;;
20318;SDS011;10317;47.254;11.314;2022-10-28T13:03:06;3.33;;;1.10;;
20318;SDS011;10317;47.254;11.314;2022-10-28T13:05:40;2.42;;;1.67;;
20318;SDS011;10317;47.254;11.314;2022-10-28T13:08:23;1.73;;;1.42;;
20318;SDS011;10317;47.254;11.314;2022-10-28T13:27:16;1.10;;;1.10;;
20318;SDS011;10317;47.254;11.314;2022-10-28T13:29:47;1.38;;;1.20;;
20318;SDS011;10317;47.254;11.314;2022-10-28T13:32:29;4.10;;;1.80;;
20318;SDS011;10317;47.254;11.314;2022-10-28T13:34:57;3.13;;;1.45;;
20318;SDS011;10317;47.254;11.314;2022-10-28T13:37:26;3.42;;;1.45;;
20318;SDS011;10317;47.254;11.314;2022-10-28T13:40:00;1.90;;;1.00;;
20318;SDS011;10317;47.254;11.314;2022-10-28T14:05:12;1.50;;;1.40;;
20318;SDS011;10317;47.254;11.314;2022-10-28T14:07:50;2.03;;;1.30;;
20318;SDS011;10317;47.254;11.314;2022-10-28T14:10:24;1.90;;;1.35;;
20318;SDS011;10317;47.254;11.314;2022-10-28T14:13:17;2.22;;;1.27;;
20318;SDS011;10317;47.254;11.314;2022-10-28T14:15:45;2.85;;;1.38;;
20318;SDS011;10317;47.254;11.314;2022-10-28T14:20:51;1.58;;;1.48;;
20318;SDS011;10317;47.254;11.314;2022-10-28T14:36:26;1.75;;;1.30;;
20318;SDS011;10317;47.254;11.314;2022-10-28T14:50:21;3.58;;;1.65;;
20318;SDS011;10317;47.254;11.314;2022-10-28T14:52:51;5.70;;;1.50;;
20318;SDS011;10317;47.254;11.314;2022-10-28T14:55:29;3.83;;;1.40;;
20318;SDS011;10317;47.254;11.314;2022-10-28T15:03:17;2.40;;;1.30;;
20318;SDS011;10317;47.254;11.314;2022-10-28T15:05:42;1.65;;;1.55;;
20318;SDS011;10317;47.254;11.314;2022-10-28T15:08:08;2.53;;;1.75;;
20318;SDS011;10317;47.254;11.314;2022-10-28T15:10:35;1.52;;;1.35;;
20318;SDS011;10317;47.254;11.314;2022-10-28T15:13:01;2.58;;;2.38;;
20318;SDS011;10317;47.254;11.314;2022-10-28T15:15:32;1.92;;;1.42;;
20318;SDS011;10317;47.254;11.314;2022-10-28T15:18:01;9.38;;;2.75;;
20318;SDS011;10317;47.254;11.314;2022-10-28T15:20:27;1.50;;;1.40;;
20318;SDS011;10317;47.254;11.314;2022-10-28T15:23:11;1.98;;;1.48;;
20318;SDS011;10317;47.254;11.314;2022-10-28T15:28:39;1.40;;;1.23;;
20318;SDS011;10317;47.254;11.314;2022-10-28T15:31:06;4.55;;;1.50;;
20318;SDS011;10317;47.254;11.314;2022-10-28T15:33:36;2.67;;;0.95;;
20318;SDS011;10317;47.254;11.314;2022-10-28T15:43:55;2.67;;;1.80;;
20318;SDS011;10317;47.254;11.314;2022-10-28T15:46:21;1.55;;;1.45;;
20318;SDS011;10317;47.254;11.314;2022-10-28T15:48:51;2.03;;;1.63;;
20318;SDS011;10317;47.254;11.314;2022-10-28T15:51:18;2.63;;;1.42;;
20318;SDS011;10317;47.254;11.314;2022-10-28T15:53:46;2.17;;;1.85;;
20318;SDS011;10317;47.254;11.314;2022-10-28T16:01:37;1.75;;;1.55;;
20318;SDS011;10317;47.254;11.314;2022-10-28T16:04:04;3.60;;;1.52;;
20318;SDS011;10317;47.254;11.314;2022-10-28T16:06:51;5.40;;;2.03;;
20318;SDS011;10317;47.254;11.314;2022-10-28T16:11:53;3.03;;;1.80;;
20318;SDS011;10317;47.254;11.314;2022-10-28T16:17:05;5.35;;;1.95;;
20318;SDS011;10317;47.254;11.314;2022-10-28T16:22:24;4.70;;;1.95;;
20318;SDS011;10317;47.254;11.314;2022-10-28T16:24:52;2.55;;;1.73;;
20318;SDS011;10317;47.254;11.314;2022-10-28T16:27:23;1.98;;;1.80;;
20318;SDS011;10317;47.254;11.314;2022-10-28T16:29:51;3.05;;;1.58;;
20318;SDS011;10317;47.254;11.314;2022-10-28T16:32:23;5.00;;;1.80;;
20318;SDS011;10317;47.254;11.314;2022-10-28T16:34:56;3.45;;;2.40;;
20318;SDS011;10317;47.254;11.314;2022-10-28T16:37:29;2.47;;;1.42;;
20318;SDS011;10317;47.254;11.314;2022-10-28T16:39:58;2.70;;;1.98;;
20318;SDS011;10317;47.254;11.314;2022-10-28T16:42:24;6.68;;;2.00;;
20318;SDS011;10317;47.254;11.314;2022-10-28T16:44:50;5.75;;;2.10;;
20318;SDS011;10317;47.254;11.314;2022-10-28T16:47:17;1.98;;;1.63;;
20318;SDS011;10317;47.254;11.314;2022-10-28T16:49:44;3.03;;;2.10;;
20318;SDS011;10317;47.254;11.314;2022-10-28T16:52:16;3.83;;;1.90;;
20318;SDS011;10317;47.254;11.314;2022-10-28T16:54:44;2.03;;;1.77;;
20318;SDS011;10317;47.254;11.314;2022-10-28T16:57:14;2.45;;;2.00;;
20318;SDS011;10317;47.254;11.314;2022-10-28T16:59:40;6.05;;;1.83;;
20318;SDS011;10317;47.254;11.314;2022-10-28T17:02:48;3.90;;;2.03;;
20318;SDS011;10317;47.254;11.314;2022-10-28T17:04:55;3.42;;;2.35;;
20318;SDS011;10317;47.254;11.314;2022-10-28T17:07:22;6.32;;;2.28;;
20318;SDS011;10317;47.254;11.314;2022-10-28T17:09:48;4.72;;;1.88;;
20318;SDS011;10317;47.254;11.314;2022-10-28T17:12:17;4.50;;;2.30;;
20318;SDS011;10317;47.254;11.314;2022-10-28T17:14:44;2.05;;;1.95;;
20318;SDS011;10317;47.254;11.314;2022-10-28T17:17:09;2.80;;;2.45;;
20318;SDS011;10317;47.254;11.314;2022-10-28T17:19:37;5.13;;;2.63;;
20318;SDS011;10317;47.254;11.314;2022-10-28T17:22:04;9.00;;;3.30;;
20318;SDS011;10317;47.254;11.314;2022-10-28T17:24:30;3.78;;;3.25;;
20318;SDS011;10317;47.254;11.314;2022-10-28T17:26:56;3.30;;;2.88;;
20318;SDS011;10317;47.254;11.314;2022-10-28T17:29:22;4.88;;;2.67;;
20318;SDS011;10317;47.254;11.314;2022-10-28T17:31:48;3.67;;;2.85;;
20318;SDS011;10317;47.254;11.314;2022-10-28T17:34:13;6.38;;;3.35;;
20318;SDS011;10317;47.254;11.314;2022-10-28T17:36:39;4.30;;;2.80;;
20318;SDS011;10317;47.254;11.314;2022-10-28T17:39:05;5.32;;;2.80;;
20318;SDS011;10317;47.254;11.314;2022-10-28T17:41:30;5.32;;;2.42;;
20318;SDS011;10317;47.254;11.314;2022-10-28T17:43:56;3.40;;;2.55;;
20318;SDS011;10317;47.254;11.314;2022-10-28T17:46:22;2.78;;;2.55;;
20318;SDS011;10317;47.254;11.314;2022-10-28T17:48:47;4.43;;;2.85;;
20318;SDS011;10317;47.254;11.314;2022-10-28T17:51:13;3.10;;;2.90;;
20318;SDS011;10317;47.254;11.314;2022-10-28T17:53:41;4.22;;;2.47;;
20318;SDS011;10317;47.254;11.314;2022-10-28T17:56:07;7.13;;;3.10;;
20318;SDS011;10317;47.254;11.314;2022-10-28T17:58:33;5.53;;;3.05;;
20318;SDS011;10317;47.254;11.314;2022-10-28T18:01:00;6.35;;;3.17;;
20318;SDS011;10317;47.254;11.314;2022-10-28T18:03:27;2.90;;;2.70;;
20318;SDS011;10317;47.254;11.314;2022-10-28T18:05:54;5.18;;;2.55;;
20318;SDS011;10317;47.254;11.314;2022-10-28T18:08:20;3.03;;;2.67;;
20318;SDS011;10317;47.254;11.314;2022-10-28T18:10:50;3.40;;;2.33;;
20318;SDS011;10317;47.254;11.314;2022-10-28T18:13:16;3.35;;;2.20;;
20318;SDS011;10317;47.254;11.314;2022-10-28T18:15:42;4.43;;;2.67;;
20318;SDS011;10317;47.254;11.314;2022-10-28T18:18:07;2.67;;;2.47;;
20318;SDS011;10317;47.254;11.314;2022-10-28T18:20:33;7.45;;;2.90;;
20318;SDS011;10317;47.254;11.314;2022-10-28T18:22:58;6.50;;;2.90;;
20318;SDS011;10317;47.254;11.314;2022-10-28T18:25:24;4.65;;;3.05;;
20318;SDS011;10317;47.254;11.314;2022-10-28T18:27:50;6.18;;;3.25;;
20318;SDS011;10317;47.254;11.314;2022-10-28T18:30:15;4.63;;;3.13;;
20318;SDS011;10317;47.254;11.314;2022-10-28T18:32:41;6.25;;;3.03;;
20318;SDS011;10317;47.254;11.314;2022-10-28T18:35:06;6.10;;;2.72;;
20318;SDS011;10317;47.254;11.314;2022-10-28T18:37:32;6.43;;;3.03;;